• Join FlightAware (Why Join?)
  • Login
  • US Flag 
12:24PM EDT


 

Airport Tracker/Info


-or-


 

Live Flight TrackerFlight Track Log ✈ AWI3587 ✈ 28-Apr-2012 ✈ KPHL - KORF

Flight Track Log - Related Links

Times and Time Zones

All times are in EDT time to prevent confusion due to time zone crossing. See the AWI3587 flight status page for this flight to view local times or setup timezone preferences in your user account.

Time Position Orientation Groundspeed Altitude Reporting Facility
EDT Latitude Longitude Course Direction KTS MPH feet Rate Location/Type
08:42PM 39.8522 -75.2474 265° West  Level FlightAware Approximate
08:42PM 39.8500 -75.2833 241° Southwest 161 185 1,500  Level Philadelphia TRACON
08:43PM 39.8386 -75.3106 202° Southwest 188 216 2,700 2,340 Climbing FAA TRACON SMA TRACON (SMA)
08:44PM 39.8064 -75.3278 185° South 227 261 4,300 2,820 Climbing FAA TRACON SMA TRACON (SMA)
08:44PM 39.7586 -75.3333 182° South 250 288 6,500 3,420 Climbing FAA TRACON SMA TRACON (SMA)
08:45PM 39.7103 -75.3356 185° South 252 290 8,900 2,700 Climbing FAA TRACON SMA TRACON (SMA)
08:46PM 39.6656 -75.3403 185° South 268 308 10,100 2,160 Climbing FAA TRACON SMA TRACON (SMA)
08:46PM 39.6097 -75.3461 184° South 295 339 11,800 2,580 Climbing FAA TRACON SMA TRACON (SMA)
08:47PM 39.5525 -75.3514 184° South 298 343 13,500 2,400 Climbing FAA TRACON SMA TRACON (SMA)
08:48PM 39.5006 -75.3556 192° South 303 349 15,000 1,680 Climbing FAA TRACON SMA TRACON (SMA)
08:48PM 39.4417 -75.3719 195° South 324 373 15,800 720 Climbing FAA TRACON SMA TRACON (SMA)
08:49PM 39.3800 -75.3933 193° South 336 387 16,000 120 Climbing FAA TRACON SMA TRACON (SMA)
08:50PM 39.3181 -75.4122 195° South 368 423 16,000  Level FAA TRACON SMA TRACON (SMA)
08:50PM 39.2467 -75.4369 191° South 381 438 16,000  Level FAA TRACON SMA TRACON (SMA)
08:51PM 39.2386 -75.4389 195° South 381 438 16,000 -60 Level FAA TRACON SMA TRACON (SMA)
08:52PM 39.0486 -75.5033 194° South 389 448 15,900 -60 Descending Washington Center
08:53PM 38.9425 -75.5383 193° South 394 453 15,900  Level Washington Center
08:54PM 38.8361 -75.5703 195° South 394 453 15,900  Level Washington Center
08:55PM 38.7339 -75.6050 195° South 394 453 16,000  Climbing Washington Center
08:56PM 38.6339 -75.6394 194° South 388 447 15,900 -60 Descending Washington Center
08:57PM 38.5339 -75.6714 193° South 388 447 15,900  Level Washington Center
08:58PM 38.4294 -75.7031 194° South 382 440 15,900  Level Washington Center
08:59PM 38.3317 -75.7347 193° South 377 434 15,900  Level Washington Center
09:00PM 38.2169 -75.7689 194° South 377 434 16,000  Climbing Washington Center
09:01PM 38.1186 -75.8003 194° South 377 434 16,000  Level Washington Center
09:02PM 38.0228 -75.8317 195° South 372 428 16,100  Climbing Washington Center
09:03PM 37.9225 -75.8656 196° South 372 428 16,100 -660 Level Washington Center
09:05PM 37.7972 -75.9097 194° South 380 437 14,700 -1,200 Descending Washington Center
09:05PM 37.7222 -75.9331 194° South 378 435 13,800 -1,260 Descending Washington Center
09:06PM 37.6722 -75.9486 191° South 373 429 13,100 -1,320 Descending Washington Center
09:07PM 37.5803 -75.9717 194° South 357 411 11,900 -1,260 Descending Washington Center
09:07PM 37.5322 -75.9872 196° South 362 417 11,300 -1,260 Descending Washington Center
09:08PM 37.4550 -76.0156 193° South 323 372 10,000 -1,200 Descending Washington Center
09:09PM 37.4194 -76.0258 200° South 275 316 9,600 -900 Descending Washington Center
09:09PM 37.3861 -76.0414 194° South 289 333 9,100 -1,020 Descending Washington Center
09:10PM 37.3214 -76.0619 195° South 263 303 8,100 -960 Descending Washington Center
09:11PM 37.2900 -76.0722 194° South 241 277 7,700 -1,020 Descending Washington Center
09:11PM 37.2567 -76.0825 197° South 251 289 7,100 -1,140 Descending Washington Center
09:12PM 37.2231 -76.0953 192° South 239 275 6,600 -1,020 Descending Washington Center
09:12PM 37.1939 -76.1028 197° South 241 277 6,100 -900 Descending Washington Center
09:13PM 37.1606 -76.1156 206° Southwest 234 269 5,700 -1,020 Descending Washington Center
09:13PM 37.1353 -76.1311 205° Southwest 236 272 5,100 -480 Descending Washington Center
09:14PM 37.0831 -76.1619 215° Southwest 231 266 5,000 -420 Descending Washington Center
09:16PM 37.0161 -76.2214 216° Southwest 201 231 4,100 -840 Descending Washington Center
09:17PM 36.9742 -76.2600 219° Southwest 196 226 3,100 -600 Descending Washington Center
09:18PM 36.9364 -76.2986 221° Southwest 188 216 3,000 -60 Descending Washington Center
09:19PM 36.8964 -76.3425 223° Southwest 182 209 3,000  Level Washington Center
09:20PM 36.8586 -76.3861 223° Southwest 184 212 3,000  Level Washington Center